createdAt,value
2023-05-03T00:00:08.634Z,7.80
2023-05-03T00:02:40.483Z,8.00
2023-05-03T00:05:12.800Z,7.70
2023-05-03T00:07:44.999Z,8.37
2023-05-03T00:10:13.493Z,8.67
2023-05-03T00:12:41.742Z,8.60
2023-05-03T00:15:10.295Z,9.10
2023-05-03T00:17:38.241Z,8.23
2023-05-03T00:20:07.218Z,7.53
2023-05-03T00:22:35.117Z,8.10
2023-05-03T00:25:02.864Z,8.57
2023-05-03T00:27:30.592Z,8.80
2023-05-03T00:29:58.209Z,8.53
2023-05-03T00:32:26.116Z,8.97
2023-05-03T00:34:55.002Z,8.40
2023-05-03T00:37:23.554Z,8.63
2023-05-03T00:39:51.731Z,8.97
2023-05-03T00:42:19.684Z,9.43
2023-05-03T00:44:47.337Z,9.47
2023-05-03T00:47:16.601Z,9.60
2023-05-03T00:49:44.665Z,8.83
2023-05-03T00:52:12.408Z,9.20
2023-05-03T00:54:40.256Z,8.53
2023-05-03T00:57:07.951Z,8.97
2023-05-03T00:59:35.754Z,8.87
2023-05-03T01:02:03.877Z,8.47
2023-05-03T01:04:32.029Z,7.60
2023-05-03T01:07:17.712Z,7.60
2023-05-03T01:10:06.847Z,8.27
2023-05-03T01:13:05.594Z,7.80
2023-05-03T01:15:54.110Z,8.13
2023-05-03T01:18:26.361Z,9.10
2023-05-03T01:20:54.704Z,8.70
2023-05-03T01:23:40.716Z,8.43
2023-05-03T01:26:17.761Z,8.40
2023-05-03T01:28:45.370Z,9.30
2023-05-03T01:31:17.973Z,9.73
2023-05-03T01:33:56.254Z,10.40
2023-05-03T01:36:32.503Z,11.27
2023-05-03T01:39:07.753Z,11.03
2023-05-03T01:41:37.017Z,10.80
2023-05-03T01:44:06.795Z,10.47
2023-05-03T01:46:34.357Z,9.63
2023-05-03T01:49:01.951Z,10.20
2023-05-03T01:51:29.554Z,9.77
2023-05-03T01:53:57.168Z,10.33
2023-05-03T01:56:24.719Z,9.13
2023-05-03T01:58:52.424Z,9.43
2023-05-03T02:01:20.058Z,9.30
2023-05-03T02:03:47.682Z,9.00
2023-05-03T02:06:15.302Z,9.30
2023-05-03T02:08:42.948Z,9.50
2023-05-03T02:11:10.587Z,9.60
2023-05-03T02:13:38.804Z,9.57
2023-05-03T02:16:06.505Z,9.20
2023-05-03T02:18:35.606Z,10.00
2023-05-03T02:21:04.792Z,9.53
2023-05-03T02:23:32.502Z,10.40
2023-05-03T02:26:00.169Z,9.77
2023-05-03T02:28:27.841Z,9.77
2023-05-03T02:30:55.498Z,8.90
2023-05-03T02:33:23.179Z,10.73
2023-05-03T02:35:53.943Z,10.10
2023-05-03T02:38:21.717Z,10.40
2023-05-03T02:40:49.359Z,10.57
2023-05-03T02:43:17.178Z,10.90
2023-05-03T02:45:44.896Z,11.30
2023-05-03T02:48:12.698Z,11.30
2023-05-03T02:50:40.303Z,10.50
2023-05-03T02:53:08.077Z,10.77
2023-05-03T02:55:36.818Z,9.87
2023-05-03T02:58:04.382Z,10.43
2023-05-03T03:00:32.118Z,10.20
2023-05-03T03:02:59.842Z,10.47
2023-05-03T03:05:27.857Z,9.40
2023-05-03T03:07:55.577Z,9.97
2023-05-03T03:10:23.589Z,9.97
2023-05-03T03:12:51.312Z,10.33
2023-05-03T03:15:18.987Z,10.73
2023-05-03T03:17:46.603Z,11.10
2023-05-03T03:20:14.254Z,10.47
2023-05-03T03:22:43.708Z,11.13
2023-05-03T03:25:11.348Z,10.77
2023-05-03T03:27:39.815Z,10.83
2023-05-03T03:30:09.223Z,10.57
2023-05-03T03:32:36.982Z,11.17
2023-05-03T03:35:04.917Z,11.50
2023-05-03T03:37:32.566Z,10.47
2023-05-03T03:40:00.355Z,10.73
2023-05-03T03:42:28.039Z,11.40
2023-05-03T03:44:55.678Z,11.07
2023-05-03T03:47:23.510Z,11.10
2023-05-03T03:49:51.358Z,10.80
2023-05-03T03:52:19.056Z,10.40
2023-05-03T03:54:46.614Z,10.80
2023-05-03T03:57:14.278Z,11.07
2023-05-03T03:59:41.924Z,10.77
2023-05-03T04:02:09.545Z,10.10
2023-05-03T04:04:37.539Z,11.30
2023-05-03T04:07:05.442Z,10.57
2023-05-03T04:09:33.111Z,10.87
2023-05-03T04:12:03.322Z,11.03
2023-05-03T04:14:31.021Z,11.33
2023-05-03T04:16:58.618Z,10.67
2023-05-03T04:19:26.454Z,10.83
2023-05-03T04:21:54.040Z,10.40
2023-05-03T04:24:22.004Z,11.17
2023-05-03T04:26:51.433Z,10.93
2023-05-03T04:29:20.051Z,10.50
2023-05-03T04:31:47.930Z,11.33
2023-05-03T04:34:15.947Z,11.10
2023-05-03T04:36:45.605Z,11.03
2023-05-03T04:39:13.353Z,11.10
2023-05-03T04:41:42.108Z,10.33
2023-05-03T04:44:09.676Z,11.23
2023-05-03T04:46:37.736Z,11.40
2023-05-03T04:49:05.542Z,10.40
2023-05-03T04:51:33.521Z,10.53
2023-05-03T04:54:01.988Z,11.10
2023-05-03T04:56:30.132Z,10.17
2023-05-03T04:58:58.078Z,11.00
2023-05-03T05:01:28.021Z,10.90
2023-05-03T05:03:55.826Z,10.80
2023-05-03T05:06:23.640Z,10.77
2023-05-03T05:08:51.375Z,10.60
2023-05-03T05:11:20.818Z,9.93
2023-05-03T05:13:48.401Z,10.00
2023-05-03T05:16:16.393Z,10.33
2023-05-03T05:18:44.279Z,9.33
2023-05-03T05:21:12.511Z,9.63
2023-05-03T05:23:40.133Z,9.87
2023-05-03T05:26:07.812Z,8.83
2023-05-03T05:28:35.433Z,9.07
2023-05-03T05:31:03.081Z,9.03
2023-05-03T05:33:30.776Z,8.80
2023-05-03T05:35:58.526Z,10.03
2023-05-03T05:38:33.870Z,9.33
2023-05-03T05:41:01.447Z,8.60
2023-05-03T05:43:29.083Z,8.80
2023-05-03T05:45:56.692Z,8.63
2023-05-03T05:48:24.484Z,8.37
2023-05-03T05:50:52.077Z,7.93
2023-05-03T05:53:22.471Z,8.13
2023-05-03T05:55:50.123Z,7.20
2023-05-03T05:58:17.768Z,7.47
2023-05-03T06:00:45.518Z,7.57
2023-05-03T06:03:13.219Z,8.40
2023-05-03T06:05:41.181Z,7.43
2023-05-03T06:08:09.208Z,6.97
2023-05-03T06:10:36.858Z,7.13
2023-05-03T06:13:04.470Z,7.40
2023-05-03T06:15:32.103Z,7.20
2023-05-03T06:17:59.803Z,6.90
2023-05-03T06:20:27.403Z,7.57
2023-05-03T06:22:54.969Z,7.30
2023-05-03T06:25:25.809Z,7.13
2023-05-03T06:27:53.452Z,6.60
2023-05-03T06:30:21.060Z,6.27
2023-05-03T06:32:48.762Z,6.83
2023-05-03T06:35:18.339Z,6.17
2023-05-03T06:37:45.904Z,5.87
2023-05-03T06:40:13.684Z,6.70
2023-05-03T06:42:41.323Z,6.17
2023-05-03T06:45:09.378Z,6.07
2023-05-03T06:47:37.296Z,5.90
2023-05-03T06:50:05.760Z,6.60
2023-05-03T06:52:33.514Z,5.70
2023-05-03T06:55:01.361Z,5.93
2023-05-03T06:57:29.161Z,6.23
2023-05-03T06:59:58.555Z,5.83
2023-05-03T07:02:26.834Z,5.80
2023-05-03T07:04:54.608Z,5.67
2023-05-03T07:07:22.354Z,5.83
2023-05-03T07:09:50.195Z,6.00
2023-05-03T07:12:17.850Z,5.80
2023-05-03T07:14:45.973Z,5.23
2023-05-03T07:17:13.589Z,5.60
2023-05-03T07:19:41.187Z,5.90
2023-05-03T07:22:08.771Z,5.70
2023-05-03T07:24:36.962Z,6.00
2023-05-03T07:27:05.161Z,5.03
2023-05-03T07:29:33.382Z,5.67
2023-05-03T07:32:01.221Z,5.40
2023-05-03T07:34:29.111Z,4.80
2023-05-03T07:36:56.882Z,5.33
2023-05-03T07:39:24.611Z,5.30
2023-05-03T07:41:52.255Z,4.90
2023-05-03T07:44:19.862Z,7.47
2023-05-03T07:46:48.982Z,5.20
2023-05-03T07:49:16.670Z,4.90
2023-05-03T07:51:44.544Z,4.70
2023-05-03T07:54:12.778Z,5.30
2023-05-03T07:56:40.405Z,5.57
2023-05-03T07:59:10.377Z,4.73
2023-05-03T08:01:38.505Z,4.30
2023-05-03T08:04:06.350Z,4.20
2023-05-03T08:06:35.872Z,4.87
2023-05-03T08:09:04.770Z,5.03
2023-05-03T08:11:32.664Z,4.90
2023-05-03T08:14:00.281Z,5.03
2023-05-03T08:16:27.871Z,4.90
2023-05-03T08:18:55.602Z,4.80
2023-05-03T08:21:26.242Z,4.43
2023-05-03T08:23:54.610Z,4.37
2023-05-03T08:26:22.297Z,5.17
2023-05-03T08:28:50.343Z,5.13
2023-05-03T08:31:18.078Z,4.87
2023-05-03T08:33:45.683Z,5.07
2023-05-03T08:36:13.322Z,4.80
2023-05-03T08:38:41.252Z,4.53
2023-05-03T08:41:19.189Z,4.93
2023-05-03T08:43:52.312Z,5.03
2023-05-03T08:46:20.158Z,5.20
2023-05-03T08:48:52.718Z,5.70
2023-05-03T08:51:23.073Z,5.40
2023-05-03T08:53:51.356Z,5.27
2023-05-03T08:56:38.509Z,5.10
2023-05-03T08:59:09.530Z,5.60
2023-05-03T09:01:38.508Z,5.70
2023-05-03T09:04:07.540Z,5.17
2023-05-03T09:06:36.585Z,5.30
2023-05-03T09:09:07.502Z,5.30
2023-05-03T09:11:36.322Z,5.57
2023-05-03T09:14:18.285Z,5.17
2023-05-03T09:16:46.963Z,5.40
2023-05-03T09:19:16.029Z,4.83
2023-05-03T09:22:06.807Z,5.03
2023-05-03T09:24:34.399Z,4.80
2023-05-03T09:27:17.456Z,5.30
2023-05-03T09:29:45.168Z,5.20
2023-05-03T09:32:12.982Z,5.30
2023-05-03T09:34:40.766Z,4.83
2023-05-03T09:37:08.406Z,4.90
2023-05-03T09:39:39.237Z,4.67
2023-05-03T09:42:14.409Z,5.10
2023-05-03T09:44:42.007Z,4.17
2023-05-03T09:47:10.714Z,5.07
2023-05-03T09:49:39.082Z,4.80
2023-05-03T09:52:08.044Z,4.93
2023-05-03T09:54:35.764Z,4.17
2023-05-03T09:57:05.667Z,4.20
2023-05-03T09:59:34.098Z,4.07
2023-05-03T10:02:04.856Z,4.33
2023-05-03T10:04:50.822Z,4.20
2023-05-03T10:07:21.665Z,4.50
2023-05-03T10:09:49.271Z,4.17
2023-05-03T10:12:19.015Z,4.10
2023-05-03T10:14:48.540Z,4.27
2023-05-03T10:17:39.476Z,4.10
2023-05-03T10:20:17.568Z,4.07
2023-05-03T10:23:13.817Z,3.97
2023-05-03T10:26:07.265Z,4.47
2023-05-03T10:28:37.063Z,3.93
2023-05-03T10:31:04.753Z,4.10
2023-05-03T10:33:35.256Z,4.20
2023-05-03T10:36:07.556Z,3.88
2023-05-03T10:38:37.349Z,3.70
2023-05-03T10:41:06.948Z,3.97
2023-05-03T10:43:34.531Z,3.75
2023-05-03T10:46:06.567Z,3.67
2023-05-03T10:48:35.483Z,3.85
2023-05-03T10:51:33.915Z,3.58
2023-05-03T10:54:01.521Z,3.90
2023-05-03T10:56:29.077Z,3.47
2023-05-03T10:58:58.775Z,3.78
2023-05-03T11:01:27.713Z,4.05
2023-05-03T11:04:01.215Z,3.90
2023-05-03T11:06:34.793Z,3.78
2023-05-03T11:09:06.966Z,4.28
2023-05-03T11:11:36.856Z,4.00
2023-05-03T11:14:05.956Z,3.35
2023-05-03T11:16:34.139Z,3.28
2023-05-03T11:19:02.641Z,3.67
2023-05-03T11:21:31.400Z,3.50
2023-05-03T11:23:59.650Z,3.70
2023-05-03T11:26:27.558Z,3.25
2023-05-03T11:28:55.233Z,3.40
2023-05-03T11:31:23.065Z,3.28
2023-05-03T11:33:51.301Z,3.25
2023-05-03T11:36:18.999Z,3.25
2023-05-03T11:38:47.096Z,3.70
2023-05-03T11:41:18.265Z,3.28
2023-05-03T11:43:47.685Z,3.17
2023-05-03T11:46:22.950Z,3.30
2023-05-03T11:48:50.686Z,3.53
2023-05-03T11:51:23.258Z,2.38
2023-05-03T11:53:51.797Z,3.00
2023-05-03T11:56:20.962Z,2.88
2023-05-03T11:59:00.630Z,3.33
2023-05-03T12:01:29.291Z,3.45
2023-05-03T12:03:59.636Z,3.50
2023-05-03T12:06:30.422Z,4.32
2023-05-03T12:09:01.676Z,3.22
2023-05-03T12:11:33.341Z,3.42
2023-05-03T12:14:03.596Z,3.63
2023-05-03T12:16:51.677Z,3.72
2023-05-03T12:19:28.000Z,4.80
2023-05-03T12:24:33.179Z,4.30
2023-05-03T12:27:02.964Z,4.10
2023-05-03T12:29:34.778Z,4.25
2023-05-03T12:32:04.124Z,4.35
2023-05-03T12:34:35.754Z,4.03
2023-05-03T12:37:06.002Z,4.20
2023-05-03T12:39:38.989Z,4.03
2023-05-03T12:42:08.921Z,3.60
2023-05-03T12:44:42.726Z,4.28
2023-05-03T12:47:23.419Z,3.90
2023-05-03T12:49:59.695Z,4.07
2023-05-03T12:55:02.625Z,4.00
2023-05-03T12:57:35.053Z,4.10
2023-05-03T13:00:13.566Z,3.90
2023-05-03T13:03:21.056Z,4.07
2023-05-03T13:10:30.573Z,4.00
2023-05-03T13:12:58.207Z,3.92
2023-05-03T13:15:26.205Z,4.30
2023-05-03T13:17:54.425Z,3.70
2023-05-03T13:20:22.648Z,3.80
2023-05-03T13:22:50.310Z,3.70
2023-05-03T13:25:17.864Z,4.38
2023-05-03T13:27:46.798Z,4.63
2023-05-03T13:30:14.776Z,4.25
2023-05-03T13:32:42.457Z,4.18
2023-05-03T13:35:10.301Z,4.10
2023-05-03T13:37:38.623Z,4.30
2023-05-03T13:40:06.899Z,4.25
2023-05-03T13:42:34.971Z,4.07
2023-05-03T13:45:03.820Z,4.25
2023-05-03T13:47:47.165Z,3.63
2023-05-03T13:50:19.108Z,3.72
2023-05-03T13:52:46.824Z,4.03
2023-05-03T13:55:14.473Z,3.30
2023-05-03T13:57:42.155Z,3.60
2023-05-03T14:00:10.313Z,3.72
2023-05-03T14:02:38.512Z,3.97
2023-05-03T14:05:12.889Z,3.47
2023-05-03T14:07:40.829Z,3.60
2023-05-03T14:10:09.281Z,3.00
2023-05-03T14:12:37.823Z,3.60
2023-05-03T14:15:06.854Z,3.65
2023-05-03T14:17:34.793Z,3.60
2023-05-03T14:20:04.386Z,3.50
2023-05-03T14:22:33.847Z,3.40
2023-05-03T14:25:02.068Z,3.40
2023-05-03T14:27:31.965Z,3.30
2023-05-03T14:30:02.904Z,3.40
2023-05-03T14:32:31.225Z,3.30
2023-05-03T14:34:59.057Z,3.28
2023-05-03T14:37:26.645Z,3.47
2023-05-03T14:39:54.400Z,3.30
2023-05-03T14:42:22.106Z,3.78
2023-05-03T14:44:49.795Z,3.40
2023-05-03T14:47:18.171Z,3.22
2023-05-03T14:49:45.848Z,3.33
2023-05-03T14:52:13.687Z,2.97
2023-05-03T14:54:41.593Z,3.45
2023-05-03T14:57:09.519Z,2.92
2023-05-03T14:59:37.107Z,3.38
2023-05-03T15:02:04.752Z,3.22
2023-05-03T15:04:32.765Z,3.58
2023-05-03T15:07:06.523Z,3.25
2023-05-03T15:09:34.117Z,3.25
2023-05-03T15:12:02.138Z,3.05
2023-05-03T15:14:30.033Z,2.72
2023-05-03T15:16:57.750Z,2.78
2023-05-03T15:19:26.772Z,2.70
2023-05-03T15:21:54.945Z,2.85
2023-05-03T15:24:22.773Z,3.03
2023-05-03T15:26:51.438Z,2.75
2023-05-03T15:29:19.284Z,3.60
2023-05-03T15:31:46.972Z,3.53
2023-05-03T15:34:14.610Z,3.00
2023-05-03T15:36:42.258Z,3.00
2023-05-03T15:39:09.844Z,2.72
2023-05-03T15:41:37.567Z,2.80
2023-05-03T15:44:07.191Z,2.83
2023-05-03T15:46:35.164Z,2.72
2023-05-03T15:49:03.402Z,2.80
2023-05-03T15:51:31.601Z,2.60
2023-05-03T15:53:59.774Z,2.80
2023-05-03T15:56:27.761Z,2.67
2023-05-03T15:58:56.360Z,2.33
2023-05-03T16:01:24.761Z,2.65
2023-05-03T16:03:52.424Z,2.88
2023-05-03T16:06:20.144Z,3.10
2023-05-03T16:08:47.746Z,3.00
2023-05-03T16:11:15.888Z,2.83
2023-05-03T16:13:43.584Z,2.92
2023-05-03T16:16:11.719Z,2.80
2023-05-03T16:18:39.485Z,2.78
2023-05-03T16:21:07.187Z,2.78
2023-05-03T16:23:34.846Z,3.17
2023-05-03T16:26:13.233Z,2.70
2023-05-03T16:28:41.347Z,2.47
2023-05-03T16:31:09.006Z,2.65
2023-05-03T16:33:36.737Z,2.83
2023-05-03T16:36:04.923Z,2.60
2023-05-03T16:38:32.575Z,2.90
2023-05-03T16:41:00.682Z,2.63
2023-05-03T16:43:28.321Z,2.60
2023-05-03T16:46:00.575Z,2.75
2023-05-03T16:48:29.826Z,2.78
2023-05-03T16:50:58.458Z,2.42
2023-05-03T16:53:26.134Z,2.78
2023-05-03T16:55:54.450Z,2.90
2023-05-03T16:58:22.076Z,2.92
2023-05-03T17:00:49.767Z,3.30
2023-05-03T17:03:17.694Z,2.90
2023-05-03T17:05:45.558Z,2.60
2023-05-03T17:08:13.463Z,2.72
2023-05-03T17:10:41.612Z,3.00
2023-05-03T17:13:09.925Z,2.70
2023-05-03T17:15:37.643Z,3.47
2023-05-03T17:18:05.448Z,2.70
2023-05-03T17:20:34.677Z,2.97
2023-05-03T17:23:02.238Z,2.95
2023-05-03T17:25:29.830Z,3.60
2023-05-03T17:27:57.440Z,2.13
2023-05-03T17:30:25.081Z,2.25
2023-05-03T17:32:52.807Z,2.20
2023-05-03T17:35:20.427Z,2.13
2023-05-03T17:37:48.104Z,2.20
2023-05-03T17:40:15.781Z,2.30
2023-05-03T17:42:43.494Z,2.40
2023-05-03T17:45:11.850Z,2.08
2023-05-03T17:47:39.452Z,2.70
2023-05-03T17:50:07.620Z,2.33
2023-05-03T17:52:35.482Z,2.25
2023-05-03T17:55:03.169Z,2.30
2023-05-03T17:57:30.836Z,2.13
2023-05-03T17:59:58.452Z,2.42
2023-05-03T18:02:26.075Z,2.50
2023-05-03T18:04:54.458Z,2.20
2023-05-03T18:07:22.049Z,2.30
2023-05-03T18:09:50.650Z,2.55
2023-05-03T18:12:18.418Z,2.47
2023-05-03T18:14:45.977Z,2.70
2023-05-03T18:17:13.568Z,2.40
2023-05-03T18:19:44.878Z,2.47
2023-05-03T18:22:12.499Z,2.33
2023-05-03T18:24:40.292Z,2.20
2023-05-03T18:27:08.167Z,2.65
2023-05-03T18:29:35.759Z,2.22
2023-05-03T18:32:06.165Z,2.30
2023-05-03T18:34:37.272Z,2.42
2023-05-03T18:37:05.218Z,2.10
2023-05-03T18:39:33.626Z,2.00
2023-05-03T18:42:01.291Z,2.60
2023-05-03T18:44:28.983Z,2.00
2023-05-03T18:46:56.911Z,2.30
2023-05-03T18:49:24.616Z,2.50
2023-05-03T18:51:52.300Z,2.10
2023-05-03T18:54:20.410Z,2.45
2023-05-03T18:56:48.100Z,2.15
2023-05-03T18:59:15.785Z,2.55
2023-05-03T19:01:43.477Z,2.75
2023-05-03T19:04:11.193Z,2.42
2023-05-03T19:06:38.824Z,2.67
2023-05-03T19:09:06.458Z,2.65
2023-05-03T19:11:34.164Z,2.30
2023-05-03T19:14:01.771Z,2.28
2023-05-03T19:16:32.172Z,2.67
2023-05-03T19:19:00.239Z,2.60
2023-05-03T19:21:30.415Z,3.10
2023-05-03T19:24:03.674Z,2.70
2023-05-03T19:26:38.277Z,2.60
2023-05-03T19:29:14.440Z,2.40
2023-05-03T19:31:42.148Z,2.40
2023-05-03T19:34:21.429Z,2.37
2023-05-03T19:37:00.657Z,2.37
2023-05-03T19:39:35.624Z,2.60
2023-05-03T19:44:53.078Z,2.70
2023-05-03T19:47:24.083Z,2.33
2023-05-03T19:49:54.097Z,3.10
2023-05-03T19:52:21.679Z,2.60
2023-05-03T19:54:49.321Z,2.53
2023-05-03T19:57:17.181Z,2.20
2023-05-03T19:59:48.113Z,3.10
2023-05-03T20:02:16.547Z,3.00
2023-05-03T20:04:46.569Z,2.70
2023-05-03T20:07:21.655Z,2.77
2023-05-03T20:09:58.127Z,2.53
2023-05-03T20:12:26.777Z,2.67
2023-05-03T20:14:56.681Z,2.50
2023-05-03T20:17:24.495Z,2.67
2023-05-03T20:20:13.139Z,2.97
2023-05-03T20:22:42.013Z,2.93
2023-05-03T20:25:09.768Z,2.73
2023-05-03T20:27:45.505Z,2.83
2023-05-03T20:30:23.684Z,2.80
2023-05-03T20:32:54.768Z,2.67
2023-05-03T20:35:31.288Z,2.90
2023-05-03T20:38:05.541Z,2.70
2023-05-03T20:40:34.477Z,2.57
2023-05-03T20:43:04.725Z,2.87
2023-05-03T20:45:32.536Z,2.63
2023-05-03T20:48:02.459Z,2.80
2023-05-03T20:50:30.972Z,3.00
2023-05-03T20:53:07.218Z,3.00
2023-05-03T20:55:35.004Z,2.70
2023-05-03T20:58:03.850Z,2.80
2023-05-03T21:00:33.331Z,2.80
2023-05-03T21:03:04.306Z,2.80
2023-05-03T21:05:34.553Z,2.50
2023-05-03T21:08:02.227Z,2.80
2023-05-03T21:10:30.008Z,2.50
2023-05-03T21:12:57.755Z,2.50
2023-05-03T21:15:31.733Z,2.70
2023-05-03T21:18:06.699Z,2.60
2023-05-03T21:20:35.633Z,2.63
2023-05-03T21:23:04.084Z,2.60
2023-05-03T21:25:32.117Z,2.90
2023-05-03T21:28:14.293Z,2.60
2023-05-03T21:30:46.636Z,2.67
2023-05-03T21:33:16.945Z,2.70
2023-05-03T21:35:44.644Z,2.90
2023-05-03T21:38:12.346Z,2.80
2023-05-03T21:40:41.364Z,2.60
2023-05-03T21:43:12.284Z,2.57
2023-05-03T21:45:43.922Z,2.93
2023-05-03T21:48:12.636Z,2.87
2023-05-03T21:50:40.652Z,2.90
2023-05-03T21:53:08.388Z,3.20
2023-05-03T21:55:35.997Z,2.80
2023-05-03T21:58:05.899Z,2.77
2023-05-03T22:00:41.446Z,2.93
2023-05-03T22:03:09.312Z,3.07
2023-05-03T22:05:40.863Z,2.87
2023-05-03T22:08:09.950Z,3.00
2023-05-03T22:10:39.770Z,3.20
2023-05-03T22:13:10.531Z,3.67
2023-05-03T22:15:38.400Z,3.03
2023-05-03T22:18:08.490Z,2.90
2023-05-03T22:20:40.538Z,2.80
2023-05-03T22:23:08.730Z,2.90
2023-05-03T22:25:36.360Z,2.57
2023-05-03T22:28:04.225Z,3.57
2023-05-03T22:30:31.988Z,3.10
2023-05-03T22:32:59.758Z,2.87
2023-05-03T22:35:28.699Z,3.03
2023-05-03T22:37:58.821Z,3.17
2023-05-03T22:40:33.058Z,3.10
2023-05-03T22:43:06.643Z,2.73
2023-05-03T22:45:34.532Z,3.37
2023-05-03T22:48:05.207Z,2.50
2023-05-03T22:50:32.947Z,2.90
2023-05-03T22:53:00.758Z,3.00
2023-05-03T22:55:29.625Z,3.60
2023-05-03T22:58:07.016Z,3.07
2023-05-03T23:00:38.668Z,2.30
2023-05-03T23:03:08.269Z,2.90
2023-05-03T23:05:36.225Z,3.00
2023-05-03T23:08:03.970Z,2.90
2023-05-03T23:10:38.268Z,3.30
2023-05-03T23:13:06.228Z,2.80
2023-05-03T23:15:38.461Z,2.70
2023-05-03T23:18:06.260Z,2.70
2023-05-03T23:20:36.683Z,2.80
2023-05-03T23:23:04.484Z,2.63
2023-05-03T23:25:32.423Z,2.57
2023-05-03T23:28:00.155Z,2.60
2023-05-03T23:30:29.323Z,2.80
2023-05-03T23:32:57.529Z,2.50
2023-05-03T23:35:25.933Z,2.43
2023-05-03T23:37:53.732Z,3.53
2023-05-03T23:40:21.327Z,2.77
2023-05-03T23:42:49.725Z,2.53
2023-05-03T23:45:17.621Z,2.70
2023-05-03T23:47:45.638Z,3.00
2023-05-03T23:50:13.922Z,3.10
2023-05-03T23:52:41.938Z,3.07
2023-05-03T23:55:10.305Z,3.20
2023-05-03T23:57:38.283Z,2.67
